createdAt,value
2022-09-07T00:00:54.269Z,58.01
2022-09-07T00:03:22.596Z,58.79
2022-09-07T00:05:52.000Z,59.05
2022-09-07T00:08:24.235Z,58.90
2022-09-07T00:11:00.995Z,59.00
2022-09-07T00:13:32.026Z,58.93
2022-09-07T00:16:03.799Z,59.16
2022-09-07T00:18:31.563Z,58.17
2022-09-07T00:21:01.942Z,58.27
2022-09-07T00:23:31.338Z,58.54
2022-09-07T00:26:06.524Z,58.62
2022-09-07T00:28:35.230Z,58.81
2022-09-07T00:31:02.843Z,58.94
2022-09-07T00:33:30.347Z,58.89
2022-09-07T00:36:00.490Z,58.77
2022-09-07T00:38:27.308Z,58.96
2022-09-07T00:40:54.601Z,58.46
2022-09-07T00:43:37.259Z,59.39
2022-09-07T00:46:06.996Z,59.96
2022-09-07T00:48:41.830Z,60.06
2022-09-07T00:51:18.361Z,60.23
2022-09-07T00:53:58.133Z,60.49
2022-09-07T00:56:32.025Z,60.94
2022-09-07T00:58:59.553Z,60.55
2022-09-07T01:01:27.372Z,60.35
2022-09-07T01:03:58.702Z,60.50
2022-09-07T01:06:33.404Z,60.87
2022-09-07T01:09:08.154Z,61.28
2022-09-07T01:11:35.945Z,61.41
2022-09-07T01:14:07.696Z,61.50
2022-09-07T01:17:04.965Z,61.59
2022-09-07T01:20:27.964Z,61.74
2022-09-07T01:23:40.357Z,61.80
2022-09-07T01:26:57.122Z,61.84
2022-09-07T01:30:06.036Z,62.01
2022-09-07T01:33:07.456Z,62.07
2022-09-07T01:35:40.326Z,61.48
2022-09-07T01:38:28.207Z,61.98
2022-09-07T01:41:10.343Z,61.91
2022-09-07T01:43:58.379Z,62.22
2022-09-07T01:46:34.874Z,62.06
2022-09-07T01:49:40.709Z,62.31
2022-09-07T01:52:21.441Z,62.31
2022-09-07T01:54:58.150Z,62.88
2022-09-07T01:57:45.186Z,62.77
2022-09-07T02:00:19.961Z,62.60
2022-09-07T02:02:55.679Z,62.57
2022-09-07T02:05:34.757Z,62.48
2022-09-07T02:08:21.946Z,62.45
2022-09-07T02:11:02.304Z,62.84
2022-09-07T02:13:46.459Z,63.19
2022-09-07T02:16:28.763Z,62.98
2022-09-07T02:19:03.660Z,62.78
2022-09-07T02:21:41.731Z,63.29
2022-09-07T02:24:24.003Z,63.31
2022-09-07T02:26:54.556Z,63.47
2022-09-07T02:29:22.547Z,64.05
2022-09-07T02:31:51.465Z,63.65
2022-09-07T02:34:18.946Z,63.44
2022-09-07T02:36:50.437Z,64.07
2022-09-07T02:39:17.396Z,64.37
2022-09-07T02:41:46.140Z,64.12
2022-09-07T02:44:21.912Z,64.24
2022-09-07T02:47:35.801Z,64.15
2022-09-07T02:50:47.554Z,64.01
2022-09-07T02:53:25.171Z,64.08
2022-09-07T02:56:17.905Z,64.57
2022-09-07T02:59:14.149Z,64.87
2022-09-07T03:02:04.998Z,65.07
2022-09-07T03:04:46.998Z,65.29
2022-09-07T03:07:34.525Z,65.74
2022-09-07T03:10:06.686Z,65.40
2022-09-07T03:12:47.660Z,65.30
2022-09-07T03:15:23.356Z,65.76
2022-09-07T03:17:50.760Z,65.81
2022-09-07T03:20:19.216Z,65.86
2022-09-07T03:22:48.858Z,65.95
2022-09-07T03:25:17.591Z,66.20
2022-09-07T03:27:44.872Z,65.91
2022-09-07T03:30:13.653Z,66.00
2022-09-07T03:32:40.647Z,66.60
2022-09-07T03:35:09.363Z,66.85
2022-09-07T03:37:37.889Z,66.91
2022-09-07T03:40:08.318Z,67.07
2022-09-07T03:42:36.077Z,66.98
2022-09-07T03:45:05.079Z,67.17
2022-09-07T03:47:35.326Z,67.31
2022-09-07T03:50:02.296Z,67.60
2022-09-07T03:52:29.100Z,67.45
2022-09-07T03:54:55.948Z,67.42
2022-09-07T03:57:22.928Z,67.69
2022-09-07T03:59:53.144Z,67.46
2022-09-07T04:02:19.995Z,67.33
2022-09-07T04:04:47.033Z,67.44
2022-09-07T04:07:15.011Z,66.92
2022-09-07T04:09:42.403Z,67.53
2022-09-07T04:12:13.487Z,67.36
2022-09-07T04:14:40.686Z,67.50
2022-09-07T04:17:07.448Z,67.46
2022-09-07T04:19:34.200Z,67.56
2022-09-07T04:22:00.940Z,68.20
2022-09-07T04:24:27.767Z,68.58
2022-09-07T04:26:54.527Z,68.41
2022-09-07T04:29:21.340Z,68.68
2022-09-07T04:31:48.141Z,68.93
2022-09-07T04:34:15.080Z,69.08
2022-09-07T04:36:41.897Z,69.66
2022-09-07T04:39:10.163Z,69.27
2022-09-07T04:41:37.061Z,69.71
2022-09-07T04:44:04.542Z,69.65
2022-09-07T04:46:35.955Z,69.73
2022-09-07T04:49:10.712Z,69.55
2022-09-07T04:51:40.056Z,69.77
2022-09-07T04:54:07.358Z,69.64
2022-09-07T04:56:34.740Z,70.27
2022-09-07T04:59:03.358Z,70.43
2022-09-07T05:01:30.287Z,70.21
2022-09-07T05:04:01.006Z,69.46
2022-09-07T05:06:28.147Z,70.02
2022-09-07T05:08:55.117Z,69.91
2022-09-07T05:11:28.729Z,69.50
2022-09-07T05:13:58.754Z,69.78
2022-09-07T05:16:27.063Z,70.14
2022-09-07T05:19:01.365Z,70.11
2022-09-07T05:21:32.612Z,69.74
2022-09-07T05:24:01.508Z,70.16
2022-09-07T05:26:32.731Z,70.18
2022-09-07T05:31:49.978Z,69.51
2022-09-07T05:34:32.552Z,69.82
2022-09-07T05:37:01.117Z,69.51
2022-09-07T05:39:28.345Z,69.11
2022-09-07T05:41:55.618Z,68.87
2022-09-07T05:47:10.728Z,68.03
2022-09-07T05:49:37.718Z,68.19
2022-09-07T05:52:04.667Z,67.89
2022-09-07T05:54:31.430Z,67.67
2022-09-07T05:56:58.416Z,66.84
2022-09-07T05:59:25.153Z,66.97
2022-09-07T06:01:51.951Z,66.29
2022-09-07T06:04:18.902Z,66.15
2022-09-07T06:07:04.687Z,66.01
2022-09-07T06:09:32.476Z,65.72
2022-09-07T06:11:59.376Z,66.14
2022-09-07T06:14:26.089Z,65.65
2022-09-07T06:16:53.759Z,65.11
2022-09-07T06:19:20.589Z,64.70
2022-09-07T06:21:47.358Z,64.83
2022-09-07T06:24:14.403Z,63.85
2022-09-07T06:26:41.341Z,63.96
2022-09-07T06:29:10.236Z,63.67
2022-09-07T06:34:24.241Z,64.37
2022-09-07T06:36:51.010Z,64.10
2022-09-07T06:39:17.754Z,64.01
2022-09-07T06:41:59.794Z,64.45
2022-09-07T06:44:26.579Z,65.02
2022-09-07T06:49:28.206Z,65.61
2022-09-07T06:51:55.106Z,65.06
2022-09-07T06:57:09.381Z,63.36
2022-09-07T06:59:38.245Z,63.67
2022-09-07T07:02:11.921Z,63.05
2022-09-07T07:04:41.155Z,62.18
2022-09-07T07:07:13.710Z,62.40
2022-09-07T07:09:41.747Z,60.69
2022-09-07T07:12:14.405Z,60.83
2022-09-07T07:14:44.926Z,60.40
2022-09-07T07:17:13.043Z,59.58
2022-09-07T07:19:39.834Z,60.40
2022-09-07T07:24:53.260Z,59.81
2022-09-07T07:27:21.570Z,59.33
2022-09-07T07:29:49.620Z,60.20
2022-09-07T07:32:16.405Z,58.83
2022-09-07T07:34:43.165Z,58.70
2022-09-07T07:37:09.854Z,59.86
2022-09-07T07:42:24.172Z,60.30
2022-09-07T07:47:38.311Z,59.50
2022-09-07T07:55:43.291Z,58.98
2022-09-07T07:58:10.375Z,57.48
2022-09-07T08:00:52.993Z,59.27
2022-09-07T08:03:25.556Z,58.19
2022-09-07T08:05:53.992Z,58.33
2022-09-07T08:08:23.427Z,58.08
2022-09-07T08:10:50.777Z,57.07
2022-09-07T08:13:19.270Z,57.50
2022-09-07T08:15:46.514Z,58.24
2022-09-07T08:18:15.966Z,58.52
2022-09-07T08:20:43.290Z,55.78
2022-09-07T08:23:10.666Z,56.66
2022-09-07T08:25:37.772Z,57.36
2022-09-07T08:28:04.537Z,57.37
2022-09-07T08:30:31.247Z,57.59
2022-09-07T08:32:58.061Z,56.40
2022-09-07T08:35:24.893Z,55.31
2022-09-07T08:37:51.554Z,55.49
2022-09-07T08:40:19.753Z,55.62
2022-09-07T08:43:12.031Z,55.96
2022-09-07T08:45:48.521Z,55.56
2022-09-07T08:48:23.554Z,56.26
2022-09-07T08:50:56.959Z,56.52
2022-09-07T08:53:25.604Z,55.85
2022-09-07T08:56:12.283Z,55.48
2022-09-07T08:58:53.530Z,56.15
2022-09-07T09:01:37.084Z,55.19
2022-09-07T09:04:22.601Z,55.31
2022-09-07T09:07:23.650Z,54.54
2022-09-07T09:10:08.954Z,52.87
2022-09-07T09:13:06.388Z,54.55
2022-09-07T09:15:47.252Z,55.22
2022-09-07T09:18:45.069Z,56.15
2022-09-07T09:21:19.077Z,55.17
2022-09-07T09:23:53.480Z,54.01
2022-09-07T09:26:27.843Z,55.45
2022-09-07T09:28:55.119Z,54.63
2022-09-07T09:31:28.383Z,54.17
2022-09-07T09:34:19.147Z,54.32
2022-09-07T09:36:51.813Z,54.67
2022-09-07T09:39:35.627Z,55.38
2022-09-07T09:42:19.601Z,54.37
2022-09-07T09:44:47.163Z,55.96
2022-09-07T09:47:30.427Z,56.33
2022-09-07T09:50:01.170Z,55.61
2022-09-07T09:52:38.497Z,55.33
2022-09-07T09:55:35.448Z,55.15
2022-09-07T10:01:36.402Z,54.11
2022-09-07T10:04:25.402Z,53.74
2022-09-07T10:06:58.659Z,55.68
2022-09-07T10:09:40.409Z,56.23
2022-09-07T10:12:34.099Z,56.38
2022-09-07T10:15:08.200Z,57.42
2022-09-07T10:17:41.978Z,57.72
2022-09-07T10:20:17.243Z,57.12
2022-09-07T10:22:53.654Z,57.78
2022-09-07T10:25:36.999Z,58.33
2022-09-07T10:28:12.793Z,57.27
2022-09-07T10:31:14.522Z,58.20
2022-09-07T10:34:26.438Z,57.24
2022-09-07T10:37:05.762Z,58.16
2022-09-07T10:39:41.554Z,58.48
2022-09-07T10:42:30.948Z,58.31
2022-09-07T10:45:00.287Z,59.50
2022-09-07T10:47:53.589Z,58.91
2022-09-07T10:50:56.787Z,57.97
2022-09-07T10:53:42.145Z,58.01
2022-09-07T10:56:25.700Z,58.36
2022-09-07T11:06:20.263Z,58.72
2022-09-07T11:09:31.524Z,59.79
2022-09-07T11:12:19.287Z,58.56
2022-09-07T11:15:18.544Z,59.16
2022-09-07T11:18:07.453Z,58.17
2022-09-07T11:20:46.999Z,58.37
2022-09-07T11:23:40.332Z,58.48
2022-09-07T11:26:57.804Z,56.93
2022-09-07T11:29:36.288Z,57.27
2022-09-07T11:32:12.816Z,56.99
2022-09-07T11:35:01.649Z,57.45
2022-09-07T11:37:42.296Z,57.78
2022-09-07T11:40:27.111Z,57.98
2022-09-07T11:43:13.566Z,58.61
2022-09-07T11:45:48.654Z,58.41
2022-09-07T11:48:23.803Z,58.95
2022-09-07T11:51:03.044Z,59.35
2022-09-07T11:53:38.326Z,58.23
2022-09-07T11:56:19.797Z,58.57
2022-09-07T11:58:56.138Z,58.45
2022-09-07T12:01:41.136Z,58.58
2022-09-07T12:04:35.781Z,57.58
2022-09-07T12:07:51.663Z,58.17
2022-09-07T12:10:42.255Z,57.73
2022-09-07T12:13:33.073Z,58.45
2022-09-07T12:16:51.825Z,58.80
2022-09-07T12:19:23.601Z,58.65
2022-09-07T12:21:53.166Z,58.21
2022-09-07T12:24:46.888Z,57.83
2022-09-07T12:27:22.206Z,57.31
2022-09-07T12:30:10.405Z,57.49
2022-09-07T12:32:57.691Z,58.33
2022-09-07T12:35:33.885Z,58.70
2022-09-07T12:38:33.894Z,57.34
2022-09-07T12:41:25.948Z,58.10
2022-09-07T12:44:06.388Z,58.34
2022-09-07T12:46:34.983Z,58.21
2022-09-07T12:49:39.713Z,58.47
2022-09-07T12:52:45.371Z,58.19
2022-09-07T12:55:29.200Z,57.91
2022-09-07T12:58:05.261Z,58.15
2022-09-07T13:01:15.296Z,57.14
2022-09-07T13:04:26.916Z,57.18
2022-09-07T13:07:18.356Z,56.38
2022-09-07T13:10:00.002Z,57.17
2022-09-07T13:12:55.245Z,57.66
2022-09-07T13:15:52.067Z,57.59
2022-09-07T13:18:27.632Z,58.27
2022-09-07T13:21:06.617Z,57.83
2022-09-07T13:23:35.770Z,57.75
2022-09-07T13:26:06.562Z,57.99
2022-09-07T13:28:56.173Z,57.10
2022-09-07T13:31:47.586Z,57.52
2022-09-07T13:34:32.365Z,56.81
2022-09-07T13:37:02.146Z,57.80
2022-09-07T13:39:39.636Z,56.99
2022-09-07T13:42:10.001Z,57.00
2022-09-07T13:44:38.716Z,57.06
2022-09-07T13:47:35.428Z,57.01
2022-09-07T13:50:23.208Z,55.12
2022-09-07T13:53:33.313Z,56.06
2022-09-07T13:56:28.584Z,55.92
2022-09-07T13:58:56.450Z,55.22
2022-09-07T14:01:26.491Z,55.76
2022-09-07T14:04:09.214Z,56.50
2022-09-07T14:06:38.609Z,56.34
2022-09-07T14:09:16.276Z,56.06
2022-09-07T14:11:49.844Z,56.45
2022-09-07T14:14:25.790Z,56.91
2022-09-07T14:16:52.373Z,57.59
2022-09-07T14:19:25.923Z,57.17
2022-09-07T14:21:59.565Z,57.32
2022-09-07T14:24:40.155Z,57.45
2022-09-07T14:27:40.838Z,57.01
2022-09-07T14:30:29.059Z,57.96
2022-09-07T14:33:11.231Z,56.69
2022-09-07T14:35:41.198Z,56.38
2022-09-07T14:39:04.000Z,55.87
2022-09-07T14:41:12.003Z,57.33
2022-09-07T14:43:53.820Z,56.97
2022-09-07T14:46:34.848Z,56.51
2022-09-07T14:49:13.583Z,55.82
2022-09-07T14:51:45.144Z,55.02
2022-09-07T14:54:34.135Z,54.00
2022-09-07T14:57:23.850Z,53.73
2022-09-07T14:59:53.445Z,53.07
2022-09-07T15:02:22.119Z,53.19
2022-09-07T15:05:18.927Z,53.00
2022-09-07T15:07:56.024Z,52.96
2022-09-07T15:10:23.702Z,53.60
2022-09-07T15:13:01.258Z,51.82
2022-09-07T15:15:40.245Z,53.32
2022-09-07T15:19:01.783Z,53.56
2022-09-07T15:21:33.331Z,53.67
2022-09-07T15:24:01.926Z,52.16
2022-09-07T15:29:32.463Z,52.76
2022-09-07T15:32:04.915Z,53.17
2022-09-07T15:34:32.603Z,52.56
2022-09-07T15:37:01.739Z,53.09
2022-09-07T15:39:30.511Z,53.42
2022-09-07T15:42:00.446Z,53.71
2022-09-07T15:44:44.755Z,54.10
2022-09-07T15:49:58.435Z,54.55
2022-09-07T15:52:25.495Z,54.99
2022-09-07T15:54:52.171Z,55.55
2022-09-07T16:00:07.445Z,55.52
2022-09-07T16:05:26.133Z,55.69
2022-09-07T16:10:41.571Z,56.48
2022-09-07T16:13:11.402Z,56.15
2022-09-07T16:15:45.795Z,56.15
2022-09-07T16:18:18.169Z,56.93
2022-09-07T16:20:46.051Z,58.18
2022-09-07T16:23:15.913Z,57.10
2022-09-07T16:25:57.264Z,57.44
2022-09-07T16:28:24.597Z,57.62
2022-09-07T16:30:51.440Z,57.94
2022-09-07T16:33:18.467Z,57.73
2022-09-07T16:36:00.004Z,59.03
2022-09-07T16:38:44.142Z,60.28
2022-09-07T16:41:26.636Z,59.38
2022-09-07T16:43:54.810Z,60.05
2022-09-07T16:46:26.275Z,59.58
2022-09-07T16:48:54.160Z,60.12
2022-09-07T16:51:23.513Z,60.02
2022-09-07T16:53:53.435Z,60.25
2022-09-07T16:56:24.511Z,58.63
2022-09-07T16:58:57.784Z,58.73
2022-09-07T17:01:34.940Z,58.88
2022-09-07T17:04:06.687Z,58.85
2022-09-07T17:06:36.627Z,59.03
2022-09-07T17:09:04.708Z,60.61
2022-09-07T17:11:35.191Z,61.59
2022-09-07T17:14:04.058Z,63.52
2022-09-07T17:16:35.453Z,65.58
2022-09-07T17:21:51.826Z,62.66
2022-09-07T17:24:19.669Z,64.83
2022-09-07T17:26:46.864Z,66.71
2022-09-07T17:29:13.580Z,68.14
2022-09-07T17:34:31.615Z,68.22
2022-09-07T17:37:00.497Z,69.38
2022-09-07T17:39:28.475Z,69.00
2022-09-07T17:41:55.498Z,69.46
2022-09-07T17:44:23.586Z,69.06
2022-09-07T17:46:51.236Z,68.91
2022-09-07T17:49:18.156Z,69.40
2022-09-07T17:51:46.385Z,70.65
2022-09-07T17:54:17.419Z,71.30
2022-09-07T17:56:45.575Z,72.28
2022-09-07T18:01:59.859Z,74.48
2022-09-07T18:04:28.215Z,75.69
2022-09-07T18:06:55.447Z,77.33
2022-09-07T18:09:22.315Z,78.51
2022-09-07T18:11:50.294Z,79.42
2022-09-07T18:14:18.693Z,80.29
2022-09-07T18:16:49.368Z,79.26
2022-09-07T18:19:18.283Z,79.60
2022-09-07T18:21:47.729Z,80.39
2022-09-07T18:24:22.197Z,81.03
2022-09-07T18:26:52.680Z,80.99
2022-09-07T18:29:33.895Z,81.26
2022-09-07T18:32:08.025Z,82.13
2022-09-07T18:34:36.728Z,82.36
2022-09-07T18:37:04.693Z,82.55
2022-09-07T18:39:32.320Z,82.69
2022-09-07T18:41:59.109Z,82.61
2022-09-07T18:47:21.419Z,82.43
2022-09-07T18:49:50.227Z,82.57
2022-09-07T18:55:07.072Z,83.26
2022-09-07T18:57:36.082Z,83.16
2022-09-07T19:00:08.378Z,82.39
2022-09-07T19:02:35.918Z,82.80
2022-09-07T19:07:50.245Z,83.32
2022-09-07T19:10:17.913Z,82.99
2022-09-07T19:12:46.210Z,82.86
2022-09-07T19:15:14.266Z,82.90
2022-09-07T19:17:40.993Z,83.08
2022-09-07T19:20:08.611Z,83.14
2022-09-07T19:22:35.282Z,82.68
2022-09-07T19:25:01.928Z,82.70
2022-09-07T19:27:29.291Z,82.79
2022-09-07T19:29:56.019Z,82.77
2022-09-07T19:32:22.786Z,82.81
2022-09-07T19:34:54.428Z,82.88
2022-09-07T19:37:25.887Z,82.73
2022-09-07T19:39:55.981Z,82.32
2022-09-07T19:42:24.735Z,82.02
2022-09-07T19:44:53.229Z,82.03
2022-09-07T19:47:21.442Z,81.66
2022-09-07T19:49:48.255Z,81.98
2022-09-07T19:52:15.471Z,81.67
2022-09-07T19:54:42.094Z,81.70
2022-09-07T19:57:09.014Z,82.08
2022-09-07T19:59:35.655Z,81.85
2022-09-07T20:02:02.638Z,81.98
2022-09-07T20:04:29.673Z,82.08
2022-09-07T20:06:56.676Z,82.10
2022-09-07T20:09:23.420Z,82.20
2022-09-07T20:11:50.265Z,82.34
2022-09-07T20:14:17.851Z,82.50
2022-09-07T20:16:44.957Z,82.44
2022-09-07T20:19:17.515Z,81.86
2022-09-07T20:21:44.237Z,81.67
2022-09-07T20:24:13.165Z,81.46
2022-09-07T20:26:40.768Z,81.52
2022-09-07T20:31:54.758Z,79.95
2022-09-07T20:34:21.532Z,79.97
2022-09-07T20:36:52.601Z,79.91
2022-09-07T20:39:21.363Z,80.05
2022-09-07T20:41:48.937Z,80.08
2022-09-07T20:44:16.083Z,79.88
2022-09-07T20:46:43.000Z,80.13
2022-09-07T20:49:10.414Z,80.16
2022-09-07T20:51:37.128Z,80.35
2022-09-07T20:54:04.163Z,80.41
2022-09-07T20:56:30.974Z,80.52
2022-09-07T20:59:01.447Z,80.36
2022-09-07T21:01:31.423Z,80.28
2022-09-07T21:04:00.641Z,80.04
2022-09-07T21:06:29.414Z,79.93
2022-09-07T21:08:59.454Z,79.68
2022-09-07T21:11:31.215Z,79.54
2022-09-07T21:14:10.232Z,79.47
2022-09-07T21:16:37.800Z,79.10
2022-09-07T21:19:10.983Z,79.23
2022-09-07T21:21:40.897Z,79.54
2022-09-07T21:24:20.155Z,79.47
2022-09-07T21:26:48.491Z,79.19
2022-09-07T21:29:25.730Z,79.39
2022-09-07T21:31:54.446Z,78.86
2022-09-07T21:34:22.545Z,78.81
2022-09-07T21:36:49.907Z,79.13
2022-09-07T21:39:17.895Z,80.15
2022-09-07T21:41:45.556Z,80.75
2022-09-07T21:44:15.838Z,81.29
2022-09-07T21:46:44.208Z,81.08
2022-09-07T21:49:11.453Z,81.18
2022-09-07T21:51:38.882Z,81.52
2022-09-07T21:54:06.106Z,81.35
2022-09-07T21:56:32.958Z,80.88
2022-09-07T21:59:01.727Z,80.34
2022-09-07T22:01:30.684Z,79.57
2022-09-07T22:04:06.915Z,79.81
2022-09-07T22:06:34.283Z,79.32
2022-09-07T22:09:02.720Z,78.99
2022-09-07T22:11:30.388Z,78.98
2022-09-07T22:14:01.924Z,79.15
2022-09-07T22:16:30.459Z,79.02
2022-09-07T22:18:57.548Z,78.96
2022-09-07T22:21:28.300Z,79.14
2022-09-07T22:23:59.200Z,79.18
2022-09-07T22:26:29.609Z,78.71
2022-09-07T22:28:56.760Z,78.67
2022-09-07T22:31:34.024Z,78.56
2022-09-07T22:34:07.393Z,77.97
2022-09-07T22:36:45.202Z,77.83
2022-09-07T22:39:16.318Z,77.59
2022-09-07T22:41:45.161Z,76.94
2022-09-07T22:44:16.040Z,77.61
2022-09-07T22:46:45.389Z,77.32
2022-09-07T22:49:15.843Z,77.15
2022-09-07T22:51:44.359Z,77.54
2022-09-07T22:54:11.523Z,77.52
2022-09-07T22:56:39.633Z,77.51
2022-09-07T22:59:09.078Z,77.17
2022-09-07T23:01:36.981Z,77.16
2022-09-07T23:04:05.046Z,76.70
2022-09-07T23:06:39.669Z,76.12
2022-09-07T23:09:12.033Z,75.93
2022-09-07T23:11:39.519Z,76.04
2022-09-07T23:14:13.394Z,76.16
2022-09-07T23:16:40.098Z,75.73
2022-09-07T23:19:07.207Z,75.83
2022-09-07T23:21:33.843Z,75.94
2022-09-07T23:24:01.248Z,75.90
2022-09-07T23:26:31.293Z,75.70
2022-09-07T23:29:02.005Z,75.67
2022-09-07T23:31:32.319Z,75.69
2022-09-07T23:34:00.159Z,76.18
2022-09-07T23:36:28.285Z,75.94
2022-09-07T23:38:57.491Z,76.02
2022-09-07T23:41:25.357Z,75.96
2022-09-07T23:43:53.933Z,76.04
2022-09-07T23:46:21.302Z,75.61
2022-09-07T23:48:49.057Z,75.61
2022-09-07T23:51:19.899Z,75.64
2022-09-07T23:53:49.857Z,75.69
2022-09-07T23:56:16.505Z,75.47
2022-09-07T23:58:43.317Z,75.22
